sensor_id;sensor_type;location;lat;lon;timestamp;pressure;altitude;pressure_sealevel;temperature;humidity
80749;BME280;70145;53.746;9.970;2024-01-15T00:02:02;98935.22;;;0.11;64.55
80749;BME280;70145;53.746;9.970;2024-01-15T00:04:28;98935.53;;;0.06;64.35
80749;BME280;70145;53.746;9.970;2024-01-15T00:06:53;98931.97;;;0.07;63.90
80749;BME280;70145;53.746;9.970;2024-01-15T00:09:18;98929.81;;;0.12;63.76
80749;BME280;70145;53.746;9.970;2024-01-15T00:11:44;98921.66;;;0.15;63.80
80749;BME280;70145;53.746;9.970;2024-01-15T00:14:09;98921.81;;;0.01;64.29
80749;BME280;70145;53.746;9.970;2024-01-15T00:16:35;98917.97;;;0.05;64.66
80749;BME280;70145;53.746;9.970;2024-01-15T00:19:00;98910.47;;;-0.01;64.90
80749;BME280;70145;53.746;9.970;2024-01-15T00:21:26;98904.63;;;-0.06;64.84
80749;BME280;70145;53.746;9.970;2024-01-15T00:23:53;98895.66;;;-0.03;64.43
80749;BME280;70145;53.746;9.970;2024-01-15T00:26:18;98889.28;;;-0.01;64.92
80749;BME280;70145;53.746;9.970;2024-01-15T00:28:44;98888.97;;;0.04;64.73
80749;BME280;70145;53.746;9.970;2024-01-15T00:31:09;98887.19;;;0.04;64.73
80749;BME280;70145;53.746;9.970;2024-01-15T00:33:34;98880.72;;;-0.04;64.46
80749;BME280;70145;53.746;9.970;2024-01-15T00:36:00;98880.00;;;-0.06;65.74
80749;BME280;70145;53.746;9.970;2024-01-15T00:38:26;98854.25;;;-0.04;65.50
80749;BME280;70145;53.746;9.970;2024-01-15T00:40:51;98869.19;;;-0.03;65.43
80749;BME280;70145;53.746;9.970;2024-01-15T00:43:16;98857.44;;;0.01;64.70
80749;BME280;70145;53.746;9.970;2024-01-15T00:45:44;98853.94;;;0.00;65.08
80749;BME280;70145;53.746;9.970;2024-01-15T00:48:09;98862.28;;;0.07;64.78
80749;BME280;70145;53.746;9.970;2024-01-15T00:50:34;98844.09;;;0.02;64.77
80749;BME280;70145;53.746;9.970;2024-01-15T00:53:00;98849.50;;;0.01;65.62
80749;BME280;70145;53.746;9.970;2024-01-15T00:55:25;98848.84;;;-0.03;65.28
80749;BME280;70145;53.746;9.970;2024-01-15T00:57:51;98840.69;;;0.00;65.37
80749;BME280;70145;53.746;9.970;2024-01-15T01:00:16;98843.00;;;0.05;64.94
80749;BME280;70145;53.746;9.970;2024-01-15T01:02:41;98843.75;;;0.07;65.31
80749;BME280;70145;53.746;9.970;2024-01-15T01:05:07;98841.97;;;0.07;64.54
80749;BME280;70145;53.746;9.970;2024-01-15T01:07:32;98815.72;;;0.04;65.52
80749;BME280;70145;53.746;9.970;2024-01-15T01:09:57;98816.53;;;0.05;65.40
80749;BME280;70145;53.746;9.970;2024-01-15T01:12:23;98825.66;;;0.01;65.31
80749;BME280;70145;53.746;9.970;2024-01-15T01:14:48;98828.25;;;-0.10;65.47
80749;BME280;70145;53.746;9.970;2024-01-15T01:17:13;98857.31;;;0.02;65.33
80749;BME280;70145;53.746;9.970;2024-01-15T01:19:38;98837.66;;;-0.06;65.40
80749;BME280;70145;53.746;9.970;2024-01-15T01:22:04;98828.84;;;0.06;64.64
80749;BME280;70145;53.746;9.970;2024-01-15T01:24:29;98824.53;;;-0.08;65.04
80749;BME280;70145;53.746;9.970;2024-01-15T01:26:54;98841.97;;;-0.05;65.30
80749;BME280;70145;53.746;9.970;2024-01-15T01:29:20;98846.63;;;0.04;64.87
80749;BME280;70145;53.746;9.970;2024-01-15T01:31:45;98842.69;;;0.09;64.25
80749;BME280;70145;53.746;9.970;2024-01-15T01:34:13;98830.31;;;0.10;64.77
80749;BME280;70145;53.746;9.970;2024-01-15T01:36:39;98819.31;;;0.03;64.71
80749;BME280;70145;53.746;9.970;2024-01-15T01:39:04;98814.22;;;0.00;64.84
80749;BME280;70145;53.746;9.970;2024-01-15T01:41:30;98819.94;;;0.07;64.99
80749;BME280;70145;53.746;9.970;2024-01-15T01:43:55;98827.66;;;0.10;64.68
80749;BME280;70145;53.746;9.970;2024-01-15T01:46:22;98819.94;;;0.07;64.98
80749;BME280;70145;53.746;9.970;2024-01-15T01:48:48;98830.31;;;0.10;64.44
80749;BME280;70145;53.746;9.970;2024-01-15T01:51:14;98815.72;;;0.04;65.21
80749;BME280;70145;53.746;9.970;2024-01-15T01:53:40;98823.56;;;0.06;65.56
80749;BME280;70145;53.746;9.970;2024-01-15T01:56:05;98816.97;;;0.11;64.64
80749;BME280;70145;53.746;9.970;2024-01-15T01:58:32;98817.78;;;0.12;64.63
80749;BME280;70145;53.746;9.970;2024-01-15T02:00:58;98827.56;;;0.11;65.27
80749;BME280;70145;53.746;9.970;2024-01-15T02:03:24;98825.03;;;0.10;65.37
80749;BME280;70145;53.746;9.970;2024-01-15T02:05:50;98811.56;;;0.13;64.92
80749;BME280;70145;53.746;9.970;2024-01-15T02:08:16;98818.53;;;0.14;65.18
80749;BME280;70145;53.746;9.970;2024-01-15T02:10:41;98806.97;;;0.15;65.16
80749;BME280;70145;53.746;9.970;2024-01-15T02:13:06;98811.25;;;0.17;64.63
80749;BME280;70145;53.746;9.970;2024-01-15T02:15:32;98809.41;;;0.18;64.69
80749;BME280;70145;53.746;9.970;2024-01-15T02:17:58;98803.19;;;0.19;64.86
80749;BME280;70145;53.746;9.970;2024-01-15T02:20:24;98799.03;;;0.15;64.99
80749;BME280;70145;53.746;9.970;2024-01-15T02:22:50;98799.56;;;0.20;64.61
80749;BME280;70145;53.746;9.970;2024-01-15T02:25:15;98790.78;;;0.19;65.03
80749;BME280;70145;53.746;9.970;2024-01-15T02:27:41;98784.88;;;0.16;65.69
80749;BME280;70145;53.746;9.970;2024-01-15T02:30:08;98794.28;;;0.20;65.26
80749;BME280;70145;53.746;9.970;2024-01-15T02:32:35;98789.84;;;0.20;65.06
80749;BME280;70145;53.746;9.970;2024-01-15T02:35:00;98793.19;;;0.22;65.03
80749;BME280;70145;53.746;9.970;2024-01-15T02:37:25;98790.44;;;0.24;65.04
80749;BME280;70145;53.746;9.970;2024-01-15T02:39:50;98780.72;;;0.24;65.48
80749;BME280;70145;53.746;9.970;2024-01-15T02:42:16;98781.31;;;0.28;65.66
80749;BME280;70145;53.746;9.970;2024-01-15T02:44:41;98788.91;;;0.32;64.88
80749;BME280;70145;53.746;9.970;2024-01-15T02:47:06;98790.97;;;0.29;64.85
80749;BME280;70145;53.746;9.970;2024-01-15T02:49:32;98799.28;;;0.35;64.95
80749;BME280;70145;53.746;9.970;2024-01-15T02:51:57;98804.59;;;0.35;64.61
80749;BME280;70145;53.746;9.970;2024-01-15T02:54:23;98810.09;;;0.32;65.00
80749;BME280;70145;53.746;9.970;2024-01-15T02:56:48;98812.47;;;0.24;65.67
80749;BME280;70145;53.746;9.970;2024-01-15T02:59:13;98801.47;;;0.18;65.99
80749;BME280;70145;53.746;9.970;2024-01-15T03:01:38;98805.56;;;0.22;66.17
80749;BME280;70145;53.746;9.970;2024-01-15T03:04:04;98805.53;;;0.11;65.81
80749;BME280;70145;53.746;9.970;2024-01-15T03:06:29;98803.06;;;0.20;66.06
80749;BME280;70145;53.746;9.970;2024-01-15T03:08:54;98802.59;;;0.26;65.46
80749;BME280;70145;53.746;9.970;2024-01-15T03:11:20;98793.63;;;0.29;64.72
80749;BME280;70145;53.746;9.970;2024-01-15T03:13:45;98790.75;;;0.32;65.24
80749;BME280;70145;53.746;9.970;2024-01-15T03:16:10;98804.19;;;0.29;65.40
80749;BME280;70145;53.746;9.970;2024-01-15T03:18:36;98793.63;;;0.29;64.85
80749;BME280;70145;53.746;9.970;2024-01-15T03:21:01;98807.78;;;0.28;64.85
80749;BME280;70145;53.746;9.970;2024-01-15T03:23:26;98805.72;;;0.20;65.58
80749;BME280;70145;53.746;9.970;2024-01-15T03:25:52;98806.53;;;0.21;65.40
80749;BME280;70145;53.746;9.970;2024-01-15T03:28:17;98801.25;;;0.21;64.96
80749;BME280;70145;53.746;9.970;2024-01-15T03:30:42;98813.66;;;0.20;64.47
80749;BME280;70145;53.746;9.970;2024-01-15T03:33:08;98815.00;;;0.26;65.04
80749;BME280;70145;53.746;9.970;2024-01-15T03:35:33;98812.25;;;0.27;64.72
80749;BME280;70145;53.746;9.970;2024-01-15T03:37:58;98811.06;;;0.31;64.58
80749;BME280;70145;53.746;9.970;2024-01-15T03:40:23;98821.66;;;0.31;64.43
80749;BME280;70145;53.746;9.970;2024-01-15T03:42:49;98810.66;;;0.25;64.14
80749;BME280;70145;53.746;9.970;2024-01-15T03:45:14;98815.50;;;0.31;64.49
80749;BME280;70145;53.746;9.970;2024-01-15T03:47:39;98809.38;;;0.30;64.44
80749;BME280;70145;53.746;9.970;2024-01-15T03:50:05;98819.44;;;0.25;64.37
80749;BME280;70145;53.746;9.970;2024-01-15T03:52:31;98819.00;;;0.31;64.39
80749;BME280;70145;53.746;9.970;2024-01-15T03:54:56;98810.09;;;0.32;64.36
80749;BME280;70145;53.746;9.970;2024-01-15T03:57:21;98812.75;;;0.32;64.32
80749;BME280;70145;53.746;9.970;2024-01-15T03:59:47;98814.56;;;0.32;64.28
80749;BME280;70145;53.746;9.970;2024-01-15T04:02:12;98815.63;;;0.29;64.81
80749;BME280;70145;53.746;9.970;2024-01-15T04:04:41;98815.47;;;0.20;65.45
80749;BME280;70145;53.746;9.970;2024-01-15T04:07:07;98804.53;;;0.24;64.74
80749;BME280;70145;53.746;9.970;2024-01-15T04:09:32;98819.34;;;0.27;64.47
80749;BME280;70145;53.746;9.970;2024-01-15T04:11:57;98821.25;;;0.25;65.23
80749;BME280;70145;53.746;9.970;2024-01-15T04:14:23;98818.38;;;0.28;64.98
80749;BME280;70145;53.746;9.970;2024-01-15T04:16:48;98824.97;;;0.22;64.79
80749;BME280;70145;53.746;9.970;2024-01-15T04:19:13;98828.03;;;0.29;64.84
80749;BME280;70145;53.746;9.970;2024-01-15T04:21:39;98831.91;;;0.36;64.46
80749;BME280;70145;53.746;9.970;2024-01-15T04:26:32;98830.72;;;0.40;65.02
80749;BME280;70145;53.746;9.970;2024-01-15T04:28:57;98835.91;;;0.41;64.63
80749;BME280;70145;53.746;9.970;2024-01-15T04:31:25;98845.66;;;0.41;64.46
80749;BME280;70145;53.746;9.970;2024-01-15T04:33:51;98837.00;;;0.39;64.07
80749;BME280;70145;53.746;9.970;2024-01-15T04:36:17;98836.78;;;0.42;64.46
80749;BME280;70145;53.746;9.970;2024-01-15T04:38:42;98840.13;;;0.44;64.16
80749;BME280;70145;53.746;9.970;2024-01-15T04:41:11;98837.72;;;0.41;64.48
80749;BME280;70145;53.746;9.970;2024-01-15T04:43:37;98839.41;;;0.42;64.41
80749;BME280;70145;53.746;9.970;2024-01-15T04:46:02;98834.25;;;0.40;64.26
80749;BME280;70145;53.746;9.970;2024-01-15T04:48:29;98840.78;;;0.47;63.80
80749;BME280;70145;53.746;9.970;2024-01-15T04:50:54;98842.56;;;0.47;64.15
80749;BME280;70145;53.746;9.970;2024-01-15T04:53:19;98842.56;;;0.47;64.17
80749;BME280;70145;53.746;9.970;2024-01-15T04:55:45;98840.66;;;0.49;63.61
80749;BME280;70145;53.746;9.970;2024-01-15T04:58:10;98831.84;;;0.48;64.43
80749;BME280;70145;53.746;9.970;2024-01-15T05:00:35;98839.59;;;0.51;63.83
80749;BME280;70145;53.746;9.970;2024-01-15T05:03:00;98836.81;;;0.53;63.42
80749;BME280;70145;53.746;9.970;2024-01-15T05:05:26;98846.78;;;0.49;63.92
80749;BME280;70145;53.746;9.970;2024-01-15T05:07:51;98837.00;;;0.39;64.25
80749;BME280;70145;53.746;9.970;2024-01-15T05:10:16;98842.06;;;0.42;64.07
80749;BME280;70145;53.746;9.970;2024-01-15T05:12:41;98839.91;;;0.47;63.89
80749;BME280;70145;53.746;9.970;2024-01-15T05:15:07;98834.72;;;0.45;63.77
80749;BME280;70145;53.746;9.970;2024-01-15T05:17:32;98839.19;;;0.45;64.22
80749;BME280;70145;53.746;9.970;2024-01-15T05:19:58;98832.53;;;0.39;64.07
80749;BME280;70145;53.746;9.970;2024-01-15T05:22:23;98840.13;;;0.44;63.49
80749;BME280;70145;53.746;9.970;2024-01-15T05:24:49;98838.56;;;0.41;64.32
80749;BME280;70145;53.746;9.970;2024-01-15T05:27:15;98834.84;;;0.44;64.02
80749;BME280;70145;53.746;9.970;2024-01-15T05:29:40;98838.84;;;0.49;64.16
80749;BME280;70145;53.746;9.970;2024-01-15T05:32:05;98835.47;;;0.47;64.06
80749;BME280;70145;53.746;9.970;2024-01-15T05:34:30;98841.38;;;0.51;63.32
80749;BME280;70145;53.746;9.970;2024-01-15T05:36:56;98844.28;;;0.48;63.98
80749;BME280;70145;53.746;9.970;2024-01-15T05:39:21;98847.84;;;0.47;63.61
80749;BME280;70145;53.746;9.970;2024-01-15T05:41:46;98837.59;;;0.42;63.58
80749;BME280;70145;53.746;9.970;2024-01-15T05:44:12;98838.47;;;0.43;63.67
80749;BME280;70145;53.746;9.970;2024-01-15T05:46:37;98846.63;;;0.40;63.41
80749;BME280;70145;53.746;9.970;2024-01-15T05:49:02;98846.06;;;0.47;64.18
80749;BME280;70145;53.746;9.970;2024-01-15T05:51:27;98840.53;;;0.50;63.77
80749;BME280;70145;53.746;9.970;2024-01-15T05:53:53;98850.72;;;0.44;63.43
80749;BME280;70145;53.746;9.970;2024-01-15T05:56:18;98852.06;;;0.49;64.15
80749;BME280;70145;53.746;9.970;2024-01-15T05:58:43;98851.03;;;0.52;63.38
80749;BME280;70145;53.746;9.970;2024-01-15T06:01:09;98854.50;;;0.52;63.44
80749;BME280;70145;53.746;9.970;2024-01-15T06:03:34;98853.47;;;0.55;64.01
80749;BME280;70145;53.746;9.970;2024-01-15T06:06:00;98852.59;;;0.54;63.35
80749;BME280;70145;53.746;9.970;2024-01-15T06:08:25;98850.28;;;0.50;63.58
80749;BME280;70145;53.746;9.970;2024-01-15T06:10:52;98858.06;;;0.40;63.11
80749;BME280;70145;53.746;9.970;2024-01-15T06:13:17;98854.13;;;0.46;62.85
80749;BME280;70145;53.746;9.970;2024-01-15T06:15:43;98857.16;;;0.52;63.26
80749;BME280;70145;53.746;9.970;2024-01-15T06:18:08;98856.34;;;0.52;63.18
80749;BME280;70145;53.746;9.970;2024-01-15T06:20:33;98848.09;;;0.44;62.57
80749;BME280;70145;53.746;9.970;2024-01-15T06:22:59;98854.72;;;0.49;62.94
80749;BME280;70145;53.746;9.970;2024-01-15T06:25:24;98849.69;;;0.46;62.71
80749;BME280;70145;53.746;9.970;2024-01-15T06:27:49;98852.44;;;0.45;62.99
80749;BME280;70145;53.746;9.970;2024-01-15T06:30:14;98848.81;;;0.46;62.13
80749;BME280;70145;53.746;9.970;2024-01-15T06:32:40;98852.44;;;0.45;62.71
80749;BME280;70145;53.746;9.970;2024-01-15T06:35:05;98846.94;;;0.48;63.06
80749;BME280;70145;53.746;9.970;2024-01-15T06:37:31;98850.06;;;0.53;62.75
80749;BME280;70145;53.746;9.970;2024-01-15T06:39:57;98846.66;;;0.51;62.42
80749;BME280;70145;53.746;9.970;2024-01-15T06:42:23;98850.91;;;0.53;61.92
80749;BME280;70145;53.746;9.970;2024-01-15T06:44:48;98848.97;;;0.55;62.34
80749;BME280;70145;53.746;9.970;2024-01-15T06:47:14;98849.44;;;0.49;62.59
80749;BME280;70145;53.746;9.970;2024-01-15T06:49:39;98851.63;;;0.55;62.75
80749;BME280;70145;53.746;9.970;2024-01-15T06:52:05;98847.84;;;0.47;61.81
80749;BME280;70145;53.746;9.970;2024-01-15T06:54:31;98857.03;;;0.54;62.19
80749;BME280;70145;53.746;9.970;2024-01-15T06:56:56;98865.84;;;0.54;62.19
80749;BME280;70145;53.746;9.970;2024-01-15T06:59:22;98865.56;;;0.46;62.72
80749;BME280;70145;53.746;9.970;2024-01-15T07:01:47;98872.34;;;0.38;62.19
80749;BME280;70145;53.746;9.970;2024-01-15T07:04:12;98872.13;;;0.41;61.98
80749;BME280;70145;53.746;9.970;2024-01-15T07:06:38;98877.09;;;0.45;62.58
80749;BME280;70145;53.746;9.970;2024-01-15T07:09:04;98875.19;;;0.47;62.15
80749;BME280;70145;53.746;9.970;2024-01-15T07:11:29;98886.41;;;0.51;61.73
80749;BME280;70145;53.746;9.970;2024-01-15T07:13:54;98893.53;;;0.50;61.99
80749;BME280;70145;53.746;9.970;2024-01-15T07:16:19;98889.53;;;0.45;61.92
80749;BME280;70145;53.746;9.970;2024-01-15T07:18:45;98883.03;;;0.49;61.53
80749;BME280;70145;53.746;9.970;2024-01-15T07:21:10;98885.16;;;0.44;61.83
80749;BME280;70145;53.746;9.970;2024-01-15T07:23:35;98896.81;;;0.41;62.10
80749;BME280;70145;53.746;9.970;2024-01-15T07:26:01;98902.97;;;0.42;61.91
80749;BME280;70145;53.746;9.970;2024-01-15T07:28:28;98891.84;;;0.37;61.98
80749;BME280;70145;53.746;9.970;2024-01-15T07:30:54;98903.19;;;0.39;62.44
80749;BME280;70145;53.746;9.970;2024-01-15T07:33:19;98898.84;;;0.38;62.26
80749;BME280;70145;53.746;9.970;2024-01-15T07:35:44;98903.91;;;0.41;61.67
80749;BME280;70145;53.746;9.970;2024-01-15T07:38:10;98903.91;;;0.41;61.84
80749;BME280;70145;53.746;9.970;2024-01-15T07:40:37;98900.94;;;0.45;61.74
80749;BME280;70145;53.746;9.970;2024-01-15T07:43:02;98899.03;;;0.47;61.53
80749;BME280;70145;53.746;9.970;2024-01-15T07:45:27;98903.59;;;0.45;61.37
80749;BME280;70145;53.746;9.970;2024-01-15T07:47:53;98913.84;;;0.50;61.78
80749;BME280;70145;53.746;9.970;2024-01-15T07:50:18;98912.88;;;0.51;62.17
80749;BME280;70145;53.746;9.970;2024-01-15T07:52:44;98908.34;;;0.53;62.08
80749;BME280;70145;53.746;9.970;2024-01-15T07:55:09;98913.75;;;0.51;61.83
80749;BME280;70145;53.746;9.970;2024-01-15T07:57:34;98920.22;;;0.47;62.14
80749;BME280;70145;53.746;9.970;2024-01-15T08:00:01;98919.38;;;0.47;62.09
80749;BME280;70145;53.746;9.970;2024-01-15T08:02:26;98922.78;;;0.49;62.25
80749;BME280;70145;53.746;9.970;2024-01-15T08:04:52;98922.56;;;0.52;61.39
80749;BME280;70145;53.746;9.970;2024-01-15T08:07:17;98922.31;;;0.55;61.99
80749;BME280;70145;53.746;9.970;2024-01-15T08:09:43;98918.72;;;0.56;61.68
80749;BME280;70145;53.746;9.970;2024-01-15T08:12:08;98929.84;;;0.61;61.47
80749;BME280;70145;53.746;9.970;2024-01-15T08:14:35;98932.50;;;0.61;61.84
80749;BME280;70145;53.746;9.970;2024-01-15T08:17:00;98926.22;;;0.62;61.13
80749;BME280;70145;53.746;9.970;2024-01-15T08:19:26;98921.53;;;0.65;61.77
80749;BME280;70145;53.746;9.970;2024-01-15T08:21:52;98923.34;;;0.65;61.34
80749;BME280;70145;53.746;9.970;2024-01-15T08:24:18;98921.63;;;0.64;61.25
80749;BME280;70145;53.746;9.970;2024-01-15T08:26:43;98937.31;;;0.67;61.43
80749;BME280;70145;53.746;9.970;2024-01-15T08:29:09;98935.00;;;0.62;61.42
80749;BME280;70145;53.746;9.970;2024-01-15T08:31:34;98938.50;;;0.63;62.04
80749;BME280;70145;53.746;9.970;2024-01-15T08:33:59;98938.28;;;0.66;61.30
80749;BME280;70145;53.746;9.970;2024-01-15T08:36:27;98941.69;;;0.68;61.64
80749;BME280;70145;53.746;9.970;2024-01-15T08:38:53;98946.00;;;0.69;61.28
80749;BME280;70145;53.746;9.970;2024-01-15T08:41:18;98940.72;;;0.69;61.29
80749;BME280;70145;53.746;9.970;2024-01-15T08:43:43;98946.00;;;0.69;61.67
80749;BME280;70145;53.746;9.970;2024-01-15T08:46:09;98949.31;;;0.72;61.55
80749;BME280;70145;53.746;9.970;2024-01-15T08:48:34;98963.59;;;0.70;61.28
80749;BME280;70145;53.746;9.970;2024-01-15T08:50:59;98960.22;;;0.68;61.53
80749;BME280;70145;53.746;9.970;2024-01-15T08:53:24;98960.44;;;0.65;61.37
80749;BME280;70145;53.746;9.970;2024-01-15T08:55:50;98968.28;;;0.66;62.29
80749;BME280;70145;53.746;9.970;2024-01-15T08:58:16;98968.06;;;0.69;61.79
80749;BME280;70145;53.746;9.970;2024-01-15T09:00:41;98971.88;;;0.65;62.51
80749;BME280;70145;53.746;9.970;2024-01-15T09:03:06;98979.81;;;0.65;62.59
80749;BME280;70145;53.746;9.970;2024-01-15T09:05:33;98985.66;;;0.70;61.84
80749;BME280;70145;53.746;9.970;2024-01-15T09:07:59;98989.16;;;0.71;62.04
80749;BME280;70145;53.746;9.970;2024-01-15T09:10:24;98986.28;;;0.74;62.49
80749;BME280;70145;53.746;9.970;2024-01-15T09:12:49;98984.78;;;0.70;61.73
80749;BME280;70145;53.746;9.970;2024-01-15T09:15:15;98975.91;;;0.71;62.13
80749;BME280;70145;53.746;9.970;2024-01-15T09:17:40;98977.69;;;0.70;62.57
80749;BME280;70145;53.746;9.970;2024-01-15T09:20:06;98982.78;;;0.73;61.95
80749;BME280;70145;53.746;9.970;2024-01-15T09:22:32;98982.78;;;0.73;61.85
80749;BME280;70145;53.746;9.970;2024-01-15T09:24:58;98980.97;;;0.74;62.24
80749;BME280;70145;53.746;9.970;2024-01-15T09:27:24;98983.84;;;0.71;62.10
80749;BME280;70145;53.746;9.970;2024-01-15T09:29:51;98989.16;;;0.71;61.97
80749;BME280;70145;53.746;9.970;2024-01-15T09:32:16;98989.97;;;0.71;62.24
80749;BME280;70145;53.746;9.970;2024-01-15T09:34:42;98988.69;;;0.77;61.90
80749;BME280;70145;53.746;9.970;2024-01-15T09:37:07;98982.88;;;0.72;62.15
80749;BME280;70145;53.746;9.970;2024-01-15T09:39:33;98979.06;;;0.76;62.63
80749;BME280;70145;53.746;9.970;2024-01-15T09:41:58;98984.13;;;0.79;62.71
80749;BME280;70145;53.746;9.970;2024-01-15T09:44:25;98993.66;;;0.81;62.14
80749;BME280;70145;53.746;9.970;2024-01-15T09:46:52;99005.00;;;0.83;62.05
80749;BME280;70145;53.746;9.970;2024-01-15T09:49:17;98999.81;;;0.82;62.53
80749;BME280;70145;53.746;9.970;2024-01-15T09:51:43;99006.69;;;0.84;62.17
80749;BME280;70145;53.746;9.970;2024-01-15T09:54:09;99021.53;;;0.87;61.77
80749;BME280;70145;53.746;9.970;2024-01-15T09:56:34;99009.13;;;0.87;61.79
80749;BME280;70145;53.746;9.970;2024-01-15T09:59:00;99024.91;;;0.89;62.37
80749;BME280;70145;53.746;9.970;2024-01-15T10:01:26;99030.00;;;0.92;61.77
80749;BME280;70145;53.746;9.970;2024-01-15T10:03:51;99039.75;;;0.91;61.53
80749;BME280;70145;53.746;9.970;2024-01-15T10:06:18;99050.22;;;0.93;61.91
80749;BME280;70145;53.746;9.970;2024-01-15T10:08:49;99048.06;;;0.87;62.33
80749;BME280;70145;53.746;9.970;2024-01-15T10:11:15;99046.97;;;0.89;61.46
80749;BME280;70145;53.746;9.970;2024-01-15T10:13:40;99043.25;;;0.92;62.36
80749;BME280;70145;53.746;9.970;2024-01-15T10:16:06;99044.94;;;0.93;62.18
80749;BME280;70145;53.746;9.970;2024-01-15T10:18:32;99052.88;;;0.93;62.06
80749;BME280;70145;53.746;9.970;2024-01-15T10:20:57;99052.06;;;0.92;61.87
80749;BME280;70145;53.746;9.970;2024-01-15T10:23:24;99049.31;;;0.94;62.08
80749;BME280;70145;53.746;9.970;2024-01-15T10:25:49;99048.56;;;0.92;61.66
80749;BME280;70145;53.746;9.970;2024-01-15T10:28:16;99059.91;;;0.94;61.97
80749;BME280;70145;53.746;9.970;2024-01-15T10:30:44;99067.84;;;0.94;62.22
80749;BME280;70145;53.746;9.970;2024-01-15T10:33:09;99064.22;;;0.95;62.13
80749;BME280;70145;53.746;9.970;2024-01-15T10:35:36;99067.84;;;0.94;61.85
80749;BME280;70145;53.746;9.970;2024-01-15T10:38:02;99083.75;;;0.94;61.67
80749;BME280;70145;53.746;9.970;2024-01-15T10:40:29;99083.75;;;0.94;61.35
80749;BME280;70145;53.746;9.970;2024-01-15T10:42:54;99094.34;;;0.94;62.05
80749;BME280;70145;53.746;9.970;2024-01-15T10:45:20;99097.84;;;0.94;61.67
80749;BME280;70145;53.746;9.970;2024-01-15T10:47:46;99097.84;;;0.94;62.10
80749;BME280;70145;53.746;9.970;2024-01-15T10:50:12;99093.41;;;0.95;62.02
80749;BME280;70145;53.746;9.970;2024-01-15T10:52:38;99101.25;;;0.96;62.44
80749;BME280;70145;53.746;9.970;2024-01-15T10:55:07;99109.84;;;1.00;61.88
80749;BME280;70145;53.746;9.970;2024-01-15T10:57:34;99110.56;;;1.02;61.90
80749;BME280;70145;53.746;9.970;2024-01-15T11:00:00;99095.41;;;1.04;61.82
80749;BME280;70145;53.746;9.970;2024-01-15T11:02:27;99100.59;;;1.06;62.05
80749;BME280;70145;53.746;9.970;2024-01-15T11:04:53;99104.06;;;1.06;61.79
80749;BME280;70145;53.746;9.970;2024-01-15T11:07:21;99104.94;;;1.07;61.40
80749;BME280;70145;53.746;9.970;2024-01-15T11:09:47;99104.06;;;1.06;61.91
80749;BME280;70145;53.746;9.970;2024-01-15T11:12:13;99106.09;;;1.03;61.46
80749;BME280;70145;53.746;9.970;2024-01-15T11:14:45;99109.28;;;0.95;58.92
80749;BME280;70145;53.746;9.970;2024-01-15T11:17:12;99110.06;;;0.97;60.27
80749;BME280;70145;53.746;9.970;2024-01-15T11:22:07;99112.69;;;0.97;60.90
80749;BME280;70145;53.746;9.970;2024-01-15T11:24:34;99116.19;;;0.97;60.28
80749;BME280;70145;53.746;9.970;2024-01-15T11:27:03;99109.28;;;0.95;60.73
80749;BME280;70145;53.746;9.970;2024-01-15T11:29:31;99104.00;;;0.95;60.06
80749;BME280;70145;53.746;9.970;2024-01-15T11:31:59;99116.41;;;0.94;59.88
80749;BME280;70145;53.746;9.970;2024-01-15T11:37:20;99112.38;;;0.89;59.13
80749;BME280;70145;53.746;9.970;2024-01-15T11:39:46;99112.38;;;0.89;58.92
80749;BME280;70145;53.746;9.970;2024-01-15T11:42:12;99111.66;;;0.87;58.66
80749;BME280;70145;53.746;9.970;2024-01-15T11:44:38;99117.06;;;0.85;59.15
80749;BME280;70145;53.746;9.970;2024-01-15T11:47:09;99116.09;;;0.86;59.13
80749;BME280;70145;53.746;9.970;2024-01-15T11:49:59;99113.34;;;0.88;59.60
80749;BME280;70145;53.746;9.970;2024-01-15T11:52:26;99117.91;;;0.86;58.82
80749;BME280;70145;53.746;9.970;2024-01-15T11:57:40;99131.91;;;0.88;59.37
80749;BME280;70145;53.746;9.970;2024-01-15T12:00:07;99125.75;;;0.87;58.97
80749;BME280;70145;53.746;9.970;2024-01-15T12:02:34;99126.59;;;0.88;58.97
80749;BME280;70145;53.746;9.970;2024-01-15T12:04:59;99125.34;;;0.81;58.31
80749;BME280;70145;53.746;9.970;2024-01-15T12:07:24;99130.41;;;0.84;58.36
80749;BME280;70145;53.746;9.970;2024-01-15T12:09:50;99124.16;;;0.85;58.99
80749;BME280;70145;53.746;9.970;2024-01-15T12:12:26;99128.50;;;0.86;58.94
80749;BME280;70145;53.746;9.970;2024-01-15T12:14:53;99131.34;;;0.83;58.37
80749;BME280;70145;53.746;9.970;2024-01-15T12:17:18;99134.00;;;0.83;58.27
80749;BME280;70145;53.746;9.970;2024-01-15T12:19:44;99128.91;;;0.80;57.65
80749;BME280;70145;53.746;9.970;2024-01-15T12:22:09;99139.53;;;0.80;57.91
80749;BME280;70145;53.746;9.970;2024-01-15T12:24:35;99141.13;;;0.70;57.31
80749;BME280;70145;53.746;9.970;2024-01-15T12:27:01;99150.13;;;0.67;56.89
80749;BME280;70145;53.746;9.970;2024-01-15T12:29:26;99148.13;;;0.71;56.90
80749;BME280;70145;53.746;9.970;2024-01-15T12:31:53;99149.16;;;0.68;57.39
80749;BME280;70145;53.746;9.970;2024-01-15T12:34:18;99157.78;;;0.72;57.49
80749;BME280;70145;53.746;9.970;2024-01-15T12:36:46;99157.00;;;0.70;56.68
80749;BME280;70145;53.746;9.970;2024-01-15T12:39:11;99163.06;;;0.72;57.20
80749;BME280;70145;53.746;9.970;2024-01-15T12:41:38;99164.66;;;0.74;56.96
80749;BME280;70145;53.746;9.970;2024-01-15T12:44:04;99164.66;;;0.74;57.37
80749;BME280;70145;53.746;9.970;2024-01-15T12:46:30;99168.06;;;0.76;57.04
80749;BME280;70145;53.746;9.970;2024-01-15T12:48:56;99168.78;;;0.78;57.20
80749;BME280;70145;53.746;9.970;2024-01-15T12:51:25;99166.88;;;0.80;57.43
80749;BME280;70145;53.746;9.970;2024-01-15T12:53:51;99174.72;;;0.82;57.02
80749;BME280;70145;53.746;9.970;2024-01-15T12:56:16;99174.72;;;0.82;57.29
80749;BME280;70145;53.746;9.970;2024-01-15T12:58:42;99175.47;;;0.84;56.70
80749;BME280;70145;53.746;9.970;2024-01-15T13:01:07;99181.91;;;0.80;57.04
80749;BME280;70145;53.746;9.970;2024-01-15T13:03:32;99186.19;;;0.82;56.82
80749;BME280;70145;53.746;9.970;2024-01-15T13:05:58;99186.19;;;0.82;57.39
80749;BME280;70145;53.746;9.970;2024-01-15T13:08:23;99191.38;;;0.84;57.01
80749;BME280;70145;53.746;9.970;2024-01-15T13:10:51;99186.81;;;0.86;57.32
80749;BME280;70145;53.746;9.970;2024-01-15T13:13:17;99181.50;;;0.86;56.63